Time;durP1;ratioP1;P1;durP2;ratioP2;P2;SDS_P1;SDS_P2;PMS_P1;PMS_P2;Temp;Humidity;BMP_temperature;BMP_pressure;BME280_temperature;BME280_humidity;BME280_pressure;Samples;Min_cycle;Max_cycle;Signal;HPM_P1;HPM_P2
2022/05/09 00:02:13;;;;;;;7.47;2.67;;;14.80;55.00;;;;;;5095975;28;20023;-70
2022/05/09 00:04:38;;;;;;;5.80;2.40;;;14.80;53.90;;;;;;5113642;28;20038;-71
2022/05/09 00:07:05;;;;;;;7.70;2.65;;;14.80;54.10;;;;;;5113595;28;20078;-71
2022/05/09 00:09:31;;;;;;;6.75;3.00;;;14.70;54.00;;;;;;5113533;28;20024;-71
2022/05/09 00:11:57;;;;;;;8.45;2.60;;;14.70;54.30;;;;;;5113084;28;20063;-71
2022/05/09 00:14:22;;;;;;;7.13;2.50;;;14.60;54.40;;;;;;5113493;28;20024;-71
2022/05/09 00:16:50;;;;;;;7.25;2.60;;;14.50;54.80;;;;;;5113601;28;20028;-70
2022/05/09 00:19:18;;;;;;;7.78;2.70;;;14.40;55.10;;;;;;5113444;28;20008;-70
2022/05/09 00:21:44;;;;;;;9.50;2.78;;;14.50;54.80;;;;;;5113408;28;20050;-71
2022/05/09 00:24:14;;;;;;;9.05;2.90;;;14.50;54.80;;;;;;5113367;28;20024;-70
2022/05/09 00:26:41;;;;;;;11.50;2.40;;;14.40;54.50;;;;;;5113419;28;20020;-70
2022/05/09 00:29:09;;;;;;;7.85;3.35;;;14.30;55.10;;;;;;5113334;28;20038;-71
2022/05/09 00:31:35;;;;;;;8.77;2.75;;;14.20;55.50;;;;;;5113256;28;20024;-70
2022/05/09 00:34:01;;;;;;;11.23;3.03;;;14.20;56.40;;;;;;5113319;28;20024;-71
2022/05/09 00:36:27;;;;;;;6.70;2.70;;;14.20;56.60;;;;;;5113274;28;20076;-71
2022/05/09 00:38:53;;;;;;;6.25;2.47;;;14.10;56.20;;;;;;5095408;28;20105;-71
2022/05/09 00:41:34;;;;;;;7.85;2.20;;;14.10;56.00;;;;;;5095136;28;20064;-71
2022/05/09 00:44:13;;;;;;;6.22;2.70;;;14.00;56.30;;;;;;5113373;28;20079;-71
2022/05/09 00:46:42;;;;;;;8.65;2.70;;;14.00;56.40;;;;;;5113230;28;20035;-71
2022/05/09 00:49:28;;;;;;;12.48;2.90;;;14.10;56.10;;;;;;5095230;28;20104;-71
2022/05/09 00:52:13;;;;;;;9.75;3.22;;;14.00;56.90;;;;;;5078044;28;20039;-71
2022/05/09 00:54:50;;;;;;;7.57;2.60;;;13.90;57.10;;;;;;5113153;28;20084;-71
2022/05/09 00:57:32;;;;;;;7.68;2.95;;;13.90;57.10;;;;;;5113168;28;20020;-71
2022/05/09 01:00:03;;;;;;;7.72;2.50;;;14.00;56.90;;;;;;5113134;28;20031;-71
2022/05/09 01:02:29;;;;;;;12.13;2.85;;;14.00;56.70;;;;;;5113042;28;20029;-71
2022/05/09 01:04:57;;;;;;;7.90;2.92;;;14.00;56.90;;;;;;5113028;28;20039;-71
2022/05/09 01:07:24;;;;;;;7.32;2.92;;;14.00;56.90;;;;;;5112999;28;20024;-71
2022/05/09 01:09:51;;;;;;;9.88;3.58;;;13.90;56.90;;;;;;5112962;28;20028;-71
2022/05/09 01:12:28;;;;;;;7.68;2.90;;;13.90;57.20;;;;;;5112926;28;20056;-71
2022/05/09 01:14:54;;;;;;;7.47;3.00;;;13.90;57.20;;;;;;5113030;28;20024;-71
2022/05/09 01:17:22;;;;;;;7.93;2.63;;;13.90;57.10;;;;;;5095157;28;20028;-71
2022/05/09 01:19:52;;;;;;;6.47;2.60;;;13.90;57.20;;;;;;5112878;28;20025;-71
2022/05/09 01:22:24;;;;;;;8.93;3.00;;;13.90;57.10;;;;;;5112882;28;20056;-71
2022/05/09 01:24:52;;;;;;;10.82;2.85;;;13.80;57.20;;;;;;5114304;28;20029;-71
2022/05/09 01:27:17;;;;;;;9.57;3.40;;;13.70;57.10;;;;;;5116537;28;20032;-71
2022/05/09 01:30:08;;;;;;;8.95;3.13;;;13.60;57.40;;;;;;5116536;28;20035;-71
2022/05/09 01:32:59;;;;;;;8.90;2.88;;;13.50;57.90;;;;;;5116422;28;20024;-71
2022/05/09 01:35:31;;;;;;;11.02;2.85;;;13.50;58.30;;;;;;5116396;28;20020;-71
2022/05/09 01:38:14;;;;;;;9.50;3.28;;;13.50;58.50;;;;;;5116580;28;20045;-71
2022/05/09 01:40:39;;;;;;;6.85;2.97;;;13.50;58.40;;;;;;5116029;28;20040;-71
2022/05/09 01:43:05;;;;;;;10.48;2.97;;;13.60;58.20;;;;;;5116371;28;20096;-71
2022/05/09 01:45:31;;;;;;;8.20;2.65;;;13.60;58.00;;;;;;5116349;28;20058;-71
2022/05/09 01:50:41;;;;;;;8.13;2.92;;;13.70;57.90;;;;;;5116228;28;20107;-71
2022/05/09 01:53:06;;;;;;;8.75;2.67;;;13.70;57.70;;;;;;5116096;28;20032;-71
2022/05/09 01:55:32;;;;;;;7.80;2.75;;;13.70;57.40;;;;;;5081329;28;20032;-71
2022/05/09 01:57:58;;;;;;;9.23;3.15;;;13.60;57.80;;;;;;5098156;28;20020;-71
2022/05/09 02:00:24;;;;;;;6.20;2.85;;;13.40;58.10;;;;;;5115981;28;20012;-71
2022/05/09 02:02:50;;;;;;;12.10;2.97;;;13.40;58.50;;;;;;5098300;28;20084;-71
2022/05/09 02:05:16;;;;;;;7.18;2.60;;;13.40;59.50;;;;;;5115843;28;20020;-71
2022/05/09 02:07:42;;;;;;;9.60;2.83;;;13.40;58.40;;;;;;5115775;28;20493;-70
2022/05/09 02:10:08;;;;;;;9.05;3.08;;;13.40;58.30;;;;;;5097768;28;20012;-70
2022/05/09 02:12:34;;;;;;;10.15;3.08;;;13.40;58.40;;;;;;5097819;28;20032;-71
2022/05/09 02:15:00;;;;;;;9.82;3.00;;;13.30;59.10;;;;;;5115582;28;20027;-71
2022/05/09 02:17:26;;;;;;;8.13;2.95;;;13.30;58.10;;;;;;5115756;28;20020;-72
2022/05/09 02:19:52;;;;;;;10.00;2.90;;;13.20;58.30;;;;;;5097675;28;20028;-71
2022/05/09 02:22:18;;;;;;;9.43;3.25;;;13.30;58.40;;;;;;5097667;28;20047;-71
2022/05/09 02:24:45;;;;;;;9.50;3.45;;;13.30;58.40;;;;;;5115498;28;20024;-71
2022/05/09 02:27:11;;;;;;;10.48;2.95;;;13.30;58.60;;;;;;5115432;28;20382;-71
2022/05/09 02:29:42;;;;;;;8.38;3.20;;;13.20;58.70;;;;;;5115305;28;20084;-71
2022/05/09 02:32:09;;;;;;;10.30;3.22;;;13.20;58.50;;;;;;5115311;28;20478;-71
2022/05/09 02:34:35;;;;;;;8.07;2.80;;;13.20;58.50;;;;;;5115232;28;20016;-71
2022/05/09 02:37:01;;;;;;;8.13;3.03;;;13.20;58.40;;;;;;5097223;28;20032;-71
2022/05/09 02:39:27;;;;;;;10.30;3.47;;;13.20;58.30;;;;;;5115186;28;20034;-71
2022/05/09 02:41:53;;;;;;;9.60;3.00;;;13.10;58.60;;;;;;5114886;28;20074;-71
2022/05/09 02:44:19;;;;;;;7.95;3.17;;;13.20;58.60;;;;;;5115104;28;20091;-71
2022/05/09 02:46:44;;;;;;;6.00;2.78;;;13.00;59.00;;;;;;5115056;28;20039;-71
2022/05/09 02:49:11;;;;;;;5.80;3.10;;;13.00;59.40;;;;;;5114997;28;20044;-71
2022/05/09 02:51:37;;;;;;;8.55;3.33;;;13.00;59.50;;;;;;5114856;28;20024;-71
2022/05/09 02:54:03;;;;;;;7.30;3.45;;;13.00;59.40;;;;;;5114862;28;20029;-71
2022/05/09 02:56:29;;;;;;;8.82;3.42;;;12.90;59.20;;;;;;5097035;28;20021;-71
2022/05/09 02:58:54;;;;;;;9.02;3.60;;;12.80;59.40;;;;;;5114808;28;20016;-71
2022/05/09 03:01:20;;;;;;;11.30;3.95;;;12.70;59.60;;;;;;5114747;28;20032;-71
2022/05/09 03:06:31;;;;;;;6.15;3.00;;;12.60;60.10;;;;;;5099697;28;20048;-71
2022/05/09 03:08:56;;;;;;;5.85;2.88;;;12.60;60.10;;;;;;5114654;28;20077;-71
2022/05/09 03:11:22;;;;;;;8.02;3.35;;;12.60;60.30;;;;;;5114546;28;20028;-71
2022/05/09 03:13:48;;;;;;;8.85;3.13;;;12.50;60.40;;;;;;5114501;28;20032;-71
2022/05/09 03:16:13;;;;;;;9.38;3.13;;;12.50;60.70;;;;;;5096487;28;20115;-71
2022/05/09 03:18:39;;;;;;;8.70;3.00;;;12.50;60.80;;;;;;5114384;28;20028;-71
2022/05/09 03:21:05;;;;;;;10.60;3.40;;;12.50;60.70;;;;;;5114412;28;20028;-71
2022/05/09 03:23:31;;;;;;;7.18;3.10;;;12.50;60.70;;;;;;5114335;28;20099;-71
2022/05/09 03:25:58;;;;;;;7.28;3.15;;;12.50;60.50;;;;;;5114322;28;20016;-71
2022/05/09 03:28:25;;;;;;;9.43;3.15;;;12.50;60.60;;;;;;5114208;28;20031;-71
2022/05/09 03:30:52;;;;;;;8.70;3.53;;;12.40;61.00;;;;;;5096191;28;20070;-71
2022/05/09 03:33:24;;;;;;;7.93;3.10;;;12.20;60.90;;;;;;5114100;28;20028;-71
2022/05/09 03:35:52;;;;;;;6.38;2.78;;;12.20;61.00;;;;;;5114188;28;20035;-71
2022/05/09 03:38:18;;;;;;;6.68;3.20;;;12.20;60.70;;;;;;5114053;28;20023;-71
2022/05/09 03:40:44;;;;;;;7.38;3.58;;;12.20;61.20;;;;;;5113845;28;20036;-71
2022/05/09 03:43:12;;;;;;;8.85;3.33;;;12.10;61.40;;;;;;5114017;28;20035;-71
2022/05/09 03:45:39;;;;;;;9.50;3.28;;;12.10;62.10;;;;;;5113932;28;20027;-71
2022/05/09 03:48:06;;;;;;;10.18;3.28;;;12.00;62.20;;;;;;5113238;28;20040;-71
2022/05/09 03:50:31;;;;;;;7.38;3.00;;;12.00;62.20;;;;;;5095844;28;20028;-71
2022/05/09 03:52:57;;;;;;;8.50;3.05;;;11.90;61.80;;;;;;5095884;28;20091;-71
2022/05/09 03:55:23;;;;;;;7.97;3.15;;;12.00;61.80;;;;;;5113812;28;20024;-71
2022/05/09 03:57:52;;;;;;;7.88;2.70;;;11.90;61.50;;;;;;5113754;28;20024;-71
2022/05/09 04:00:20;;;;;;;7.22;3.17;;;11.90;61.50;;;;;;5113731;28;20019;-71
2022/05/09 04:02:45;;;;;;;10.60;3.08;;;11.80;61.70;;;;;;5113666;28;20028;-71
2022/05/09 04:05:16;;;;;;;9.63;3.10;;;11.90;61.90;;;;;;5095734;28;20032;-71
2022/05/09 04:07:47;;;;;;;6.13;2.88;;;12.00;62.60;;;;;;5113680;28;20032;-71
2022/05/09 04:10:15;;;;;;;9.98;3.13;;;11.90;61.90;;;;;;5113597;28;20020;-71
2022/05/09 04:12:41;;;;;;;7.82;3.45;;;11.80;62.00;;;;;;5113417;28;20035;-71
2022/05/09 04:17:53;;;;;;;10.13;3.70;;;11.80;61.70;;;;;;5113628;28;20085;-71
2022/05/09 04:20:19;;;;;;;8.77;3.28;;;11.90;62.10;;;;;;5113435;28;20027;-71
2022/05/09 04:22:45;;;;;;;10.40;3.63;;;11.80;62.50;;;;;;5113425;28;20028;-71
2022/05/09 04:25:12;;;;;;;12.15;3.60;;;11.70;62.90;;;;;;5113403;28;20032;-71
2022/05/09 04:27:38;;;;;;;8.60;2.92;;;11.70;63.20;;;;;;5113422;28;20091;-71
2022/05/09 04:30:07;;;;;;;10.27;3.08;;;11.80;63.00;;;;;;5113360;28;20024;-71
2022/05/09 04:32:34;;;;;;;8.40;3.63;;;11.80;62.90;;;;;;5113283;28;20020;-71
2022/05/09 04:34:59;;;;;;;6.88;3.45;;;11.80;62.80;;;;;;5113322;28;20042;-71
2022/05/09 04:37:25;;;;;;;12.98;3.50;;;11.90;62.70;;;;;;5113279;28;20024;-71
2022/05/09 04:39:54;;;;;;;11.73;4.00;;;11.90;62.60;;;;;;5113183;28;20040;-71
2022/05/09 04:42:20;;;;;;;14.82;4.90;;;11.90;62.90;;;;;;5112881;28;20044;-71
2022/05/09 04:44:46;;;;;;;8.30;3.38;;;11.90;62.70;;;;;;5113181;28;20043;-71
2022/05/09 04:47:13;;;;;;;9.50;3.85;;;12.00;62.80;;;;;;5113159;28;20028;-71
2022/05/09 04:49:39;;;;;;;8.02;3.20;;;11.90;63.30;;;;;;5113164;28;20039;-71
2022/05/09 04:52:05;;;;;;;8.63;3.40;;;11.90;63.20;;;;;;5113045;28;20028;-71
2022/05/09 04:54:31;;;;;;;9.90;3.83;;;11.90;63.30;;;;;;5113036;28;20427;-71
2022/05/09 04:56:56;;;;;;;9.77;3.55;;;12.00;63.40;;;;;;5113100;28;20054;-71
2022/05/09 04:59:22;;;;;;;9.25;3.20;;;12.00;63.40;;;;;;5115501;28;20050;-70
2022/05/09 05:01:47;;;;;;;8.98;3.80;;;12.10;63.10;;;;;;5117069;28;20035;-70
2022/05/09 05:04:14;;;;;;;12.63;4.25;;;12.10;63.00;;;;;;5117014;28;20043;-70
2022/05/09 05:06:39;;;;;;;13.82;3.85;;;12.10;63.10;;;;;;5116982;28;20084;-71
2022/05/09 05:09:05;;;;;;;9.23;4.03;;;12.00;63.40;;;;;;5116920;28;20032;-71
2022/05/09 05:11:30;;;;;;;12.90;4.25;;;12.00;63.40;;;;;;5116808;28;20024;-71
2022/05/09 05:13:56;;;;;;;10.27;4.00;;;12.00;63.40;;;;;;5116801;28;20050;-71
2022/05/09 05:16:59;;;;;;;11.98;3.80;;;12.00;63.40;;;;;;5098851;28;20023;-71
2022/05/09 05:19:07;;;;;;;12.45;3.97;;;11.90;63.70;;;;;;5116571;28;20036;-71
2022/05/09 05:21:33;;;;;;;11.50;4.00;;;12.00;63.80;;;;;;5116650;28;20042;-71
2022/05/09 05:23:59;;;;;;;9.65;3.80;;;11.90;63.50;;;;;;5098618;28;20036;-72
2022/05/09 05:26:24;;;;;;;10.52;4.00;;;11.90;65.00;;;;;;5098742;28;20046;-71
2022/05/09 05:28:50;;;;;;;9.98;3.80;;;11.80;64.20;;;;;;5098582;28;20025;-71
2022/05/09 05:31:18;;;;;;;11.80;3.78;;;11.90;64.40;;;;;;5116451;28;20043;-71
2022/05/09 05:33:44;;;;;;;14.43;4.35;;;11.90;64.70;;;;;;5116492;28;20020;-71
2022/05/09 05:36:10;;;;;;;10.35;3.58;;;11.80;64.70;;;;;;5116442;28;20035;-71
2022/05/09 05:38:35;;;;;;;14.32;4.13;;;11.90;64.80;;;;;;5098555;28;20020;-71
2022/05/09 05:41:02;;;;;;;11.40;4.10;;;11.90;64.80;;;;;;5116095;28;20028;-72
2022/05/09 05:43:28;;;;;;;14.07;4.65;;;12.00;64.50;;;;;;5098267;28;20058;-71
2022/05/09 05:45:55;;;;;;;11.48;4.78;;;12.00;64.80;;;;;;5116263;28;20028;-72
2022/05/09 05:48:21;;;;;;;12.27;5.03;;;12.00;64.70;;;;;;5116297;28;20027;-72
2022/05/09 05:50:47;;;;;;;11.48;4.93;;;12.00;64.80;;;;;;5116127;28;20035;-72
2022/05/09 05:53:13;;;;;;;11.48;4.40;;;12.00;64.90;;;;;;5098202;28;20047;-72
2022/05/09 05:55:38;;;;;;;10.15;4.47;;;12.00;64.80;;;;;;5116019;28;20027;-72
2022/05/09 05:58:04;;;;;;;10.02;4.43;;;12.10;65.10;;;;;;5098025;28;20024;-71
2022/05/09 06:00:30;;;;;;;14.13;5.03;;;12.20;64.90;;;;;;5115932;28;20040;-71
2022/05/09 06:02:56;;;;;;;10.48;5.20;;;12.20;64.60;;;;;;5115899;28;20020;-71
2022/05/09 06:05:21;;;;;;;11.77;4.50;;;12.20;64.30;;;;;;5115821;28;20055;-71
2022/05/09 06:07:52;;;;;;;13.18;4.70;;;12.30;64.30;;;;;;5115795;28;20020;-71
2022/05/09 06:10:18;;;;;;;11.60;4.53;;;12.30;64.70;;;;;;5097220;28;20141;-71
2022/05/09 06:12:44;;;;;;;11.82;4.07;;;12.30;64.40;;;;;;5115687;28;20020;-71
2022/05/09 06:15:32;;;;;;;14.07;4.60;;;12.30;64.00;;;;;;5115613;28;20027;-71
2022/05/09 08:17:09;;;;;;;13.15;5.65;;;15.80;58.30;;;;;;5113469;28;20024;-72
2022/05/09 08:19:37;;;;;;;13.40;5.82;;;15.90;58.50;;;;;;5095775;28;20028;-72
2022/05/09 08:22:04;;;;;;;15.80;6.75;;;16.10;59.50;;;;;;5113457;28;20410;-72
2022/05/09 08:24:30;;;;;;;11.48;6.13;;;16.20;58.40;;;;;;5113560;28;20024;-72
2022/05/09 08:26:55;;;;;;;11.15;6.03;;;16.30;58.00;;;;;;5113357;28;20058;-73
2022/05/09 08:29:21;;;;;;;11.43;5.82;;;16.40;57.60;;;;;;5113300;28;20069;-72
2022/05/09 08:31:47;;;;;;;10.50;5.50;;;16.50;57.40;;;;;;5113280;28;20063;-72
2022/05/09 08:34:14;;;;;;;11.35;5.85;;;16.60;56.70;;;;;;5097849;28;20080;-72
2022/05/09 08:36:46;;;;;;;9.52;5.03;;;16.60;55.80;;;;;;5117545;28;20042;-72
2022/05/09 08:39:13;;;;;;;13.68;6.50;;;16.70;56.90;;;;;;5100809;28;20324;-72
2022/05/09 08:41:56;;;;;;;14.25;6.00;;;16.90;57.10;;;;;;5117399;28;20028;-72
2022/05/09 08:44:27;;;;;;;12.18;6.00;;;17.00;56.60;;;;;;5099391;28;20020;-72
2022/05/09 08:47:28;;;;;;;14.23;6.23;;;17.10;56.60;;;;;;5117357;28;20089;-72
2022/05/09 08:50:13;;;;;;;14.77;6.28;;;17.30;56.50;;;;;;5117359;28;20050;-71
2022/05/09 08:52:45;;;;;;;14.38;6.03;;;17.40;56.30;;;;;;5117226;28;20032;-71
2022/05/09 08:55:12;;;;;;;10.13;5.30;;;17.40;55.90;;;;;;5117041;28;20485;-71
2022/05/09 08:57:47;;;;;;;10.65;5.57;;;17.60;55.50;;;;;;5117183;28;20020;-71
2022/05/09 09:00:20;;;;;;;9.00;5.70;;;17.60;54.60;;;;;;5117167;28;20024;-70
2022/05/09 09:03:23;;;;;;;11.88;5.20;;;17.70;54.70;;;;;;5117125;28;20027;-70
2022/05/09 09:05:52;;;;;;;13.15;5.85;;;17.90;54.10;;;;;;5117018;28;20032;-71
2022/05/09 09:08:37;;;;;;;10.85;5.80;;;17.90;54.20;;;;;;5116975;28;20031;-71
2022/05/09 09:11:35;;;;;;;10.45;5.30;;;18.00;52.90;;;;;;5116984;28;20024;-71
2022/05/09 09:14:26;;;;;;;9.18;4.93;;;18.00;51.80;;;;;;5116757;28;20044;-71
2022/05/09 09:17:00;;;;;;;9.50;5.03;;;17.90;51.60;;;;;;5116962;28;20024;-71
2022/05/09 09:19:47;;;;;;;8.68;5.47;;;18.00;52.60;;;;;;5116827;28;20027;-71
2022/05/09 09:22:13;;;;;;;13.98;5.18;;;18.20;53.00;;;;;;5098670;28;20054;-71
2022/05/09 09:25:05;;;;;;;14.20;5.60;;;18.30;53.10;;;;;;5116618;28;20028;-71
2022/05/09 09:27:45;;;;;;;14.48;5.78;;;18.50;53.50;;;;;;5116808;28;20027;-71
2022/05/09 09:30:15;;;;;;;14.73;5.28;;;18.70;52.70;;;;;;5098529;28;20020;-71
2022/05/09 09:32:44;;;;;;;13.13;5.40;;;18.80;52.50;;;;;;5116389;28;20032;-71
2022/05/09 09:35:19;;;;;;;10.18;5.07;;;18.80;50.40;;;;;;5116417;28;20079;-71
2022/05/09 09:38:00;;;;;;;9.75;5.00;;;18.80;50.40;;;;;;5116568;28;20036;-71
2022/05/09 09:40:26;;;;;;;11.45;4.85;;;18.90;50.20;;;;;;5116457;28;20072;-71
2022/05/09 09:42:56;;;;;;;11.43;5.40;;;19.00;50.10;;;;;;5098555;28;20032;-71
2022/05/09 09:45:44;;;;;;;8.20;5.25;;;19.20;50.20;;;;;;5115130;28;20052;-70
2022/05/09 09:48:13;;;;;;;12.65;5.50;;;19.10;46.10;;;;;;5116379;28;20036;-70
2022/05/09 09:51:03;;;;;;;12.23;5.32;;;19.10;48.10;;;;;;5116156;28;20047;-70
2022/05/09 09:53:56;;;;;;;11.20;5.47;;;19.30;49.60;;;;;;5115993;28;20028;-70
2022/05/09 09:56:21;;;;;;;11.23;4.93;;;19.40;48.10;;;;;;5115961;28;20020;-70
2022/05/09 09:58:49;;;;;;;8.75;3.60;;;19.60;47.50;;;;;;5115942;28;20080;-70
2022/05/09 10:01:26;;;;;;;6.50;3.75;;;19.60;45.00;;;;;;5116016;28;20027;-70
2022/05/09 10:04:12;;;;;;;11.32;4.10;;;19.60;46.10;;;;;;5115918;28;20016;-70
2022/05/09 10:07:00;;;;;;;7.45;4.00;;;19.70;45.60;;;;;;5115861;28;20020;-71
2022/05/09 10:09:29;;;;;;;10.07;4.72;;;19.80;45.60;;;;;;5115808;28;20012;-72
2022/05/09 10:12:13;;;;;;;9.60;4.45;;;19.80;43.80;;;;;;5115687;28;20031;-72
2022/05/09 10:14:38;;;;;;;8.65;4.53;;;19.60;44.20;;;;;;5115592;28;20495;-72
2022/05/09 10:17:26;;;;;;;9.18;4.65;;;19.70;44.90;;;;;;5115646;28;20048;-69
2022/05/09 10:19:54;;;;;;;9.93;4.32;;;19.80;45.10;;;;;;5115713;28;20024;-70
2022/05/09 10:25:16;;;;;;;7.95;4.45;;;20.00;46.00;;;;;;5115660;28;20050;-69
2022/05/09 10:27:43;;;;;;;7.13;3.97;;;19.90;45.10;;;;;;5115382;28;20031;-70
2022/05/09 10:30:31;;;;;;;10.80;4.63;;;19.90;45.50;;;;;;5115450;28;20025;-70
2022/05/09 10:33:19;;;;;;;9.50;4.35;;;20.10;45.80;;;;;;5115160;28;20028;-70
2022/05/09 10:35:52;;;;;;;9.82;4.13;;;20.20;46.70;;;;;;5115474;28;20024;-70
2022/05/09 10:38:37;;;;;;;10.60;4.50;;;20.40;45.90;;;;;;5115309;28;20027;-70
2022/05/09 10:41:28;;;;;;;10.00;5.00;;;20.60;45.30;;;;;;5115173;28;20028;-69
2022/05/09 10:44:17;;;;;;;9.90;5.05;;;20.70;47.80;;;;;;5115188;28;20028;-70
2022/05/09 10:46:54;;;;;;;8.07;4.82;;;20.60;44.30;;;;;;5097396;28;20090;-70
2022/05/09 10:49:24;;;;;;;9.38;4.30;;;20.50;43.80;;;;;;5115143;28;20028;-69
2022/05/09 10:52:04;;;;;;;13.57;4.80;;;20.50;44.50;;;;;;5115068;28;20024;-69
2022/05/09 10:54:55;;;;;;;9.13;5.15;;;20.60;44.30;;;;;;5114990;28;20028;-69
2022/05/09 10:57:39;;;;;;;9.88;4.95;;;20.50;44.20;;;;;;5114696;28;20016;-70
2022/05/09 11:00:12;;;;;;;10.18;4.45;;;20.50;44.70;;;;;;5114842;28;20020;-70
2022/05/09 11:02:49;;;;;;;11.23;4.78;;;20.70;45.20;;;;;;5114860;28;20084;-70
2022/05/09 11:05:14;;;;;;;9.95;4.43;;;20.90;46.30;;;;;;5114693;28;20020;-70
2022/05/09 11:07:52;;;;;;;7.95;5.15;;;21.00;45.20;;;;;;5096710;28;20032;-70
2022/05/09 11:10:44;;;;;;;10.05;5.00;;;21.30;46.50;;;;;;5096786;28;20027;-70
2022/05/09 11:13:25;;;;;;;10.80;6.25;;;21.20;43.30;;;;;;5114595;28;20070;-70
2022/05/09 11:16:29;;;;;;;9.43;5.28;;;21.20;42.10;;;;;;5114361;28;20051;-69
2022/05/09 11:19:19;;;;;;;10.35;5.07;;;21.20;43.60;;;;;;5114526;28;20020;-70
2022/05/09 11:22:17;;;;;;;10.43;5.20;;;21.40;44.30;;;;;;5114442;28;20020;-69
2022/05/09 11:24:46;;;;;;;9.00;5.10;;;21.50;44.30;;;;;;5114376;28;20017;-70
2022/05/09 11:27:31;;;;;;;10.35;5.53;;;21.50;44.50;;;;;;5114274;28;20024;-70
2022/05/09 11:30:02;;;;;;;12.23;6.13;;;21.50;43.00;;;;;;5113951;28;20024;-69
2022/05/09 11:32:41;;;;;;;10.02;5.80;;;21.50;43.60;;;;;;5114262;28;20054;-69
2022/05/09 11:35:28;;;;;;;11.88;6.10;;;21.50;42.50;;;;;;5114196;28;20016;-69
2022/05/09 11:38:11;;;;;;;9.30;6.30;;;21.60;42.40;;;;;;5096107;28;20050;-70
2022/05/09 11:41:04;;;;;;;10.52;5.65;;;21.60;43.20;;;;;;5096133;28;20020;-69
2022/05/09 11:43:43;;;;;;;12.10;6.45;;;21.70;43.00;;;;;;5114022;28;20107;-68
2022/05/09 11:46:24;;;;;;;16.02;6.80;;;21.80;44.70;;;;;;5113877;28;20032;-68
2022/05/09 11:49:24;;;;;;;11.00;6.13;;;22.00;44.10;;;;;;5114068;28;20039;-69
2022/05/09 11:51:49;;;;;;;11.00;6.15;;;21.90;42.40;;;;;;5113940;28;20043;-69
2022/05/09 11:54:20;;;;;;;10.65;5.65;;;22.00;42.80;;;;;;5113884;28;20459;-68
2022/05/09 11:56:49;;;;;;;11.23;7.00;;;22.10;45.10;;;;;;5113817;28;20024;-69
2022/05/09 11:59:27;;;;;;;13.95;7.13;;;22.20;44.90;;;;;;5113785;28;20103;-68
2022/05/09 12:02:00;;;;;;;12.30;7.50;;;22.30;44.70;;;;;;5113761;28;20078;-68
2022/05/09 12:04:43;;;;;;;15.07;8.05;;;22.40;43.70;;;;;;5113696;28;20034;-68
2022/05/09 12:07:22;;;;;;;11.23;7.63;;;22.30;42.20;;;;;;5113561;28;20088;-68
2022/05/09 12:10:01;;;;;;;13.68;8.43;;;22.30;41.60;;;;;;5112965;28;20054;-68
2022/05/09 12:12:41;;;;;;;15.88;7.25;;;22.20;43.90;;;;;;5113798;28;20038;-68
2022/05/09 12:15:29;;;;;;;10.52;7.05;;;22.20;41.30;;;;;;5113379;28;20043;-68
2022/05/09 12:17:57;;;;;;;14.50;6.68;;;22.40;43.60;;;;;;5095451;28;20372;-68
2022/05/09 12:20:29;;;;;;;13.90;7.15;;;22.50;41.70;;;;;;5113484;28;20012;-68
2022/05/09 12:23:03;;;;;;;11.10;7.03;;;22.50;42.30;;;;;;5113602;28;20051;-68
2022/05/09 12:25:41;;;;;;;16.67;8.30;;;22.60;44.00;;;;;;5113437;28;20094;-68
2022/05/09 12:28:30;;;;;;;16.27;7.88;;;22.70;44.70;;;;;;5113468;28;20107;-67
2022/05/09 12:31:01;;;;;;;16.00;8.07;;;22.70;42.70;;;;;;5113410;28;20028;-68
2022/05/09 12:33:50;;;;;;;13.70;7.93;;;22.80;42.70;;;;;;5113403;28;20028;-67
2022/05/09 12:36:26;;;;;;;13.65;7.38;;;22.90;41.60;;;;;;5113445;28;20024;-68
2022/05/09 12:38:54;;;;;;;11.63;7.55;;;22.90;41.90;;;;;;5095551;28;20012;-68
2022/05/09 12:41:24;;;;;;;13.30;7.60;;;22.90;41.50;;;;;;5113215;28;20024;-68
2022/05/09 12:44:22;;;;;;;27.83;7.60;;;22.90;41.90;;;;;;5095305;28;20042;-68
2022/05/09 12:46:57;;;;;;;14.57;7.13;;;23.00;42.30;;;;;;5093583;28;20036;-68
2022/05/09 12:49:27;;;;;;;14.65;7.25;;;23.20;43.60;;;;;;5095267;28;20024;-68
2022/05/09 12:51:57;;;;;;;14.90;7.07;;;23.30;42.30;;;;;;5113070;28;20016;-69
2022/05/09 12:54:26;;;;;;;11.60;7.90;;;23.50;44.20;;;;;;5113274;28;20042;-68
2022/05/09 12:56:53;;;;;;;12.25;7.93;;;23.60;42.40;;;;;;5113110;28;20017;-68
2022/05/09 12:59:20;;;;;;;13.55;7.80;;;23.50;40.20;;;;;;5113142;28;20023;-68
2022/05/09 13:02:04;;;;;;;14.05;8.23;;;23.50;42.70;;;;;;5113081;28;20028;-68
2022/05/09 13:04:35;;;;;;;13.38;8.63;;;23.60;42.30;;;;;;5113107;28;20035;-69
2022/05/09 13:07:06;;;;;;;13.18;7.68;;;23.50;43.30;;;;;;5112965;28;20028;-68
2022/05/09 13:09:45;;;;;;;10.93;6.57;;;23.50;39.90;;;;;;5113084;28;20055;-68
2022/05/09 13:12:23;;;;;;;13.05;7.05;;;23.70;40.60;;;;;;5113048;28;20031;-68
2022/05/09 13:14:56;;;;;;;15.32;7.82;;;23.90;40.30;;;;;;5094963;28;20479;-69
2022/05/09 13:17:34;;;;;;;16.38;8.20;;;23.80;39.20;;;;;;5112999;28;20020;-68
2022/05/09 13:20:00;;;;;;;14.50;7.20;;;23.90;40.30;;;;;;5114568;28;20024;-68
2022/05/09 13:22:31;;;;;;;14.05;7.30;;;23.80;40.10;;;;;;5116766;28;20016;-68
2022/05/09 13:25:08;;;;;;;12.65;7.53;;;23.90;40.90;;;;;;5116770;28;20023;-68
2022/05/09 13:27:35;;;;;;;13.25;7.43;;;23.80;38.30;;;;;;5098620;28;20032;-69
2022/05/09 13:30:07;;;;;;;10.73;7.18;;;23.70;38.60;;;;;;5116583;28;20034;-69
2022/05/09 13:32:35;;;;;;;15.60;7.45;;;23.70;41.00;;;;;;5116543;28;20028;-68
2022/05/09 13:35:03;;;;;;;15.32;7.93;;;23.90;39.70;;;;;;5116500;28;20040;-69
2022/05/09 13:37:34;;;;;;;13.00;7.43;;;24.00;39.50;;;;;;5116501;28;20012;-68
2022/05/09 13:40:12;;;;;;;11.52;7.60;;;24.10;38.50;;;;;;5116537;28;20039;-69
2022/05/09 13:42:44;;;;;;;10.82;7.20;;;24.20;38.70;;;;;;5116314;28;20027;-68
2022/05/09 13:45:19;;;;;;;13.40;7.10;;;24.20;37.40;;;;;;5116304;28;20028;-69
2022/05/09 13:47:54;;;;;;;10.07;6.72;;;24.20;39.80;;;;;;5116339;28;20020;-69
2022/05/09 13:50:24;;;;;;;10.48;7.57;;;24.20;39.20;;;;;;5116231;28;20332;-69
2022/05/09 13:52:50;;;;;;;11.93;7.13;;;24.20;37.60;;;;;;5116186;28;20035;-69
2022/05/09 13:55:44;;;;;;;11.73;7.53;;;24.10;38.00;;;;;;5116083;28;20028;-69
2022/05/09 13:58:12;;;;;;;12.40;7.38;;;24.10;37.00;;;;;;5112516;28;20051;-69
2022/05/09 14:00:42;;;;;;;13.23;6.90;;;24.10;37.70;;;;;;5116044;28;20020;-69
2022/05/09 14:03:20;;;;;;;11.68;7.00;;;24.20;39.80;;;;;;5116044;28;20051;-69
2022/05/09 14:05:47;;;;;;;12.68;7.28;;;24.10;40.20;;;;;;5116006;28;20457;-69
2022/05/09 14:08:13;;;;;;;13.00;6.03;;;24.10;38.10;;;;;;5115855;28;20032;-69
2022/05/09 14:10:49;;;;;;;10.55;6.13;;;24.10;38.10;;;;;;5115873;28;20020;-69
2022/05/09 14:13:29;;;;;;;9.18;6.47;;;24.30;41.30;;;;;;5115789;28;20031;-69
2022/05/09 14:15:59;;;;;;;8.80;6.35;;;24.40;38.00;;;;;;5115651;28;20115;-69
2022/05/09 14:18:35;;;;;;;10.10;5.78;;;24.60;37.90;;;;;;5115829;28;20428;-69
2022/05/09 14:21:05;;;;;;;13.55;6.32;;;24.80;38.30;;;;;;5115699;28;20016;-69
2022/05/09 14:23:31;;;;;;;13.25;7.22;;;24.90;36.90;;;;;;5115680;28;20024;-69
2022/05/09 14:31:39;;;;;;;13.93;7.70;;;25.10;37.40;;;;;;5114869;28;20110;-70
2022/05/09 14:34:39;;;;;;;14.07;7.35;;;25.00;36.20;;;;;;5097379;28;20037;-69
2022/05/09 14:37:25;;;;;;;11.55;6.65;;;24.80;34.50;;;;;;5096922;28;20036;-68
2022/05/09 14:40:06;;;;;;;11.07;6.50;;;24.70;36.60;;;;;;5115293;28;20028;-68
2022/05/09 14:42:48;;;;;;;11.18;6.93;;;24.80;34.90;;;;;;5097124;28;20051;-68
2022/05/09 14:45:18;;;;;;;11.25;6.75;;;24.80;35.80;;;;;;5097139;28;20096;-68
2022/05/09 14:47:46;;;;;;;13.77;7.13;;;24.70;36.70;;;;;;5115137;28;20083;-68
2022/05/09 14:50:19;;;;;;;10.40;6.32;;;24.80;38.60;;;;;;5115057;28;20425;-68
2022/05/09 14:52:57;;;;;;;11.75;6.32;;;24.80;36.50;;;;;;5115097;28;20057;-68
2022/05/09 14:58:23;;;;;;;12.80;7.43;;;24.70;35.20;;;;;;5114933;28;20039;-68
2022/05/09 15:00:58;;;;;;;12.68;5.57;;;24.80;36.00;;;;;;5114899;28;20087;-68
2022/05/09 15:03:25;;;;;;;8.45;5.38;;;24.70;36.00;;;;;;5114851;28;20020;-68
2022/05/09 15:05:52;;;;;;;10.20;5.95;;;24.70;36.00;;;;;;5114700;28;20102;-68
2022/05/09 15:08:18;;;;;;;8.40;5.45;;;24.70;36.30;;;;;;5114775;28;20020;-68
2022/05/09 15:10:44;;;;;;;11.18;6.15;;;24.70;36.00;;;;;;5114618;28;20075;-69
2022/05/09 15:13:19;;;;;;;10.95;6.15;;;24.70;35.60;;;;;;5114533;28;20060;-71
2022/05/09 15:15:49;;;;;;;13.73;6.63;;;24.70;35.00;;;;;;5114425;28;20044;-70
2022/05/09 15:18:15;;;;;;;12.90;7.70;;;24.70;37.40;;;;;;5114760;28;20016;-69
2022/05/09 15:20:41;;;;;;;14.13;7.25;;;24.60;36.10;;;;;;5114467;28;20111;-68
2022/05/09 15:23:07;;;;;;;14.43;7.70;;;24.60;37.20;;;;;;5114401;28;20039;-69
2022/05/09 15:25:33;;;;;;;11.73;7.50;;;24.70;37.70;;;;;;5114393;28;20043;-68